createdAt,value
2024-04-23T00:02:09.536Z,0
2024-04-23T00:07:28.570Z,0
2024-04-23T00:12:47.552Z,0
2024-04-23T00:23:25.858Z,0
2024-04-23T00:28:45.663Z,0
2024-04-23T00:34:04.622Z,0
2024-04-23T00:39:23.395Z,0
2024-04-23T00:44:42.884Z,0
2024-04-23T00:55:21.628Z,0
2024-04-23T01:00:39.915Z,0
2024-04-23T01:05:58.519Z,0
2024-04-23T01:11:17.979Z,0
2024-04-23T01:21:56.840Z,0
2024-04-23T01:27:16.074Z,0
2024-04-23T01:37:54.769Z,0
2024-04-23T01:43:13.918Z,0
2024-04-23T01:48:33.266Z,0
2024-04-23T01:53:52.740Z,0
2024-04-23T01:59:12.049Z,0
2024-04-23T02:04:31.393Z,0
2024-04-23T02:09:50.299Z,0
2024-04-23T02:15:09.313Z,0
2024-04-23T02:20:28.881Z,0
2024-04-23T02:25:48.734Z,0
2024-04-23T02:31:07.591Z,0
2024-04-23T02:36:26.990Z,0
2024-04-23T02:41:46.616Z,0
2024-04-23T02:47:05.921Z,0
2024-04-23T02:52:25.468Z,0
2024-04-23T02:57:44.697Z,0
2024-04-23T03:03:03.982Z,0
2024-04-23T03:08:24.012Z,0
2024-04-23T03:14:58.190Z,0
2024-04-23T03:19:02.081Z,0
2024-04-23T03:24:21.898Z,0
2024-04-23T03:29:41.281Z,0
2024-04-23T03:35:00.638Z,0
2024-04-23T03:40:19.728Z,0
2024-04-23T03:45:39.481Z,1
2024-04-23T03:50:59.163Z,5
2024-04-23T03:56:19.201Z,15
2024-04-23T04:01:39.223Z,35
2024-04-23T04:06:58.039Z,70
2024-04-23T04:17:36.947Z,207
2024-04-23T04:22:56.755Z,321
2024-04-23T04:28:16.048Z,449
2024-04-23T04:33:34.262Z,591
2024-04-23T04:38:53.849Z,740
2024-04-23T04:44:14.052Z,889
2024-04-23T04:49:32.454Z,1040
2024-04-23T04:54:51.208Z,1241
2024-04-23T05:00:10.679Z,1347
2024-04-23T05:05:29.620Z,1492
2024-04-23T05:16:09.593Z,2861
2024-04-23T05:21:29.120Z,3632
2024-04-23T05:26:48.975Z,4094
2024-04-23T05:32:08.008Z,4545
2024-04-23T05:37:27.225Z,4969
2024-04-23T05:42:46.923Z,5414
2024-04-23T05:48:06.592Z,5708
2024-04-23T05:53:26.002Z,5874
2024-04-23T06:04:04.636Z,4125
2024-04-23T06:09:24.274Z,3775
2024-04-23T06:14:43.720Z,3621
2024-04-23T06:20:02.903Z,3565
2024-04-23T06:30:40.420Z,3459
2024-04-23T06:36:00.019Z,3477
2024-04-23T06:46:37.956Z,3613
2024-04-23T06:51:57.787Z,3736
2024-04-23T06:57:16.472Z,3941
2024-04-23T07:02:35.990Z,4165
2024-04-23T07:07:55.247Z,4197
2024-04-23T07:13:14.499Z,4124
2024-04-23T07:18:35.727Z,4266
2024-04-23T07:23:53.392Z,5023
2024-04-23T07:34:32.829Z,23451
2024-04-23T07:43:05.954Z,25059
2024-04-23T07:47:21.314Z,26725
2024-04-23T07:55:48.564Z,29755
2024-04-23T08:01:08.339Z,29984
2024-04-23T08:06:27.580Z,29529
2024-04-23T08:11:45.977Z,28916
2024-04-23T08:17:05.854Z,29005
2024-04-23T08:22:25.365Z,30561
2024-04-23T08:28:59.757Z,31860
2024-04-23T08:33:04.497Z,32579
2024-04-23T08:38:23.704Z,33440
2024-04-23T08:43:42.211Z,34644
2024-04-23T08:49:01.642Z,34786
2024-04-23T08:54:21.038Z,35636
2024-04-23T08:59:38.825Z,35800
2024-04-23T09:10:17.112Z,40530
2024-04-23T09:15:36.779Z,42169
2024-04-23T09:22:10.961Z,41934
2024-04-23T09:26:14.835Z,40179
2024-04-23T09:31:34.240Z,39986
2024-04-23T09:36:52.918Z,40235
2024-04-23T09:42:12.189Z,42917
2024-04-23T09:52:50.915Z,45050
2024-04-23T09:58:09.867Z,45057
2024-04-23T10:08:48.125Z,43900
2024-04-23T10:14:07.138Z,41720
2024-04-23T10:20:41.235Z,44268
2024-04-23T10:24:47.309Z,46490
2024-04-23T10:30:06.864Z,45222
2024-04-23T10:35:25.877Z,45707
2024-04-23T10:40:49.395Z,44336
2024-04-23T10:51:22.296Z,44681
2024-04-23T11:01:59.532Z,41523
2024-04-23T11:07:19.029Z,43323
2024-04-23T11:12:38.032Z,43056
2024-04-23T11:17:57.111Z,43131
2024-04-23T11:28:34.956Z,44776
2024-04-23T11:33:54.793Z,47200
2024-04-23T11:39:13.946Z,16207
2024-04-23T11:44:33.618Z,10638
2024-04-23T11:49:53.337Z,44824
2024-04-23T11:55:12.948Z,45255
2024-04-23T12:00:32.604Z,45462
2024-04-23T12:05:51.926Z,18763
2024-04-23T12:11:10.643Z,47056
2024-04-23T12:16:29.997Z,23812
2024-04-23T12:27:18.284Z,42396
2024-04-23T12:32:27.699Z,43780
2024-04-23T12:37:46.547Z,47756
2024-04-23T12:43:06.908Z,36021
2024-04-23T12:48:25.975Z,43750
2024-04-23T12:53:45.029Z,43451
2024-04-23T12:59:04.041Z,21214
2024-04-23T13:04:23.044Z,41714
2024-04-23T13:09:42.693Z,41842
2024-04-23T13:15:01.548Z,12967
2024-04-23T13:20:20.177Z,43166
2024-04-23T13:25:39.751Z,25484
2024-04-23T13:30:59.475Z,32595
2024-04-23T13:36:18.932Z,16071
2024-04-23T13:41:37.764Z,19405
2024-04-23T13:46:57.285Z,33808
2024-04-23T13:52:16.392Z,10495
2024-04-23T13:57:35.920Z,30801
2024-04-23T14:02:55.349Z,10755
2024-04-23T14:08:15.726Z,26505
2024-04-23T14:13:34.134Z,25499
2024-04-23T14:18:54.138Z,25492
2024-04-23T14:24:12.176Z,24586
2024-04-23T14:34:51.634Z,6077
2024-04-23T14:40:11.107Z,21858
2024-04-23T14:46:04.463Z,21099
2024-04-23T14:51:24.009Z,21729
2024-04-23T14:56:43.275Z,21504
2024-04-23T15:02:02.227Z,4833
2024-04-23T15:07:20.516Z,4320
2024-04-23T15:12:40.596Z,9666
2024-04-23T15:17:58.895Z,8580
2024-04-23T15:23:18.262Z,15010
2024-04-23T15:28:37.808Z,14658
2024-04-23T15:39:16.695Z,12232
2024-04-23T15:44:36.334Z,4512
2024-04-23T15:49:56.416Z,5950
2024-04-23T15:55:14.323Z,4026
2024-04-23T16:00:33.782Z,3925
2024-04-23T16:05:53.191Z,4024
2024-04-23T16:11:12.851Z,3518
2024-04-23T16:16:32.217Z,7330
2024-04-23T16:21:51.011Z,4462
2024-04-23T16:27:10.176Z,4158
2024-04-23T16:32:29.112Z,4544
2024-04-23T16:37:48.352Z,4618
2024-04-23T16:43:08.738Z,4657
2024-04-23T16:48:27.075Z,4068
2024-04-23T16:53:46.378Z,3208
2024-04-23T16:59:05.359Z,2578
2024-04-23T17:04:24.198Z,2355
2024-04-23T17:09:43.684Z,2186
2024-04-23T17:20:21.351Z,1978
2024-04-23T17:25:41.078Z,1781
2024-04-23T17:31:00.619Z,1662
2024-04-23T17:36:28.398Z,1437
2024-04-23T17:46:57.267Z,1190
2024-04-23T17:52:16.722Z,1070
2024-04-23T17:57:36.457Z,975
2024-04-23T18:03:05.487Z,786
2024-04-23T18:08:14.297Z,600
2024-04-23T18:13:33.795Z,430
2024-04-23T18:18:53.295Z,296
2024-04-23T18:24:12.526Z,206
2024-04-23T18:29:32.001Z,130
2024-04-23T18:34:51.513Z,68
2024-04-23T18:40:11.663Z,32
2024-04-23T18:45:30.361Z,14
2024-04-23T18:50:50.064Z,5
2024-04-23T18:56:07.997Z,1
2024-04-23T19:01:27.229Z,0
2024-04-23T19:06:46.739Z,0
2024-04-23T19:12:06.846Z,0
2024-04-23T19:17:27.298Z,0
2024-04-23T19:22:45.650Z,0
2024-04-23T19:28:04.603Z,0
2024-04-23T19:33:24.315Z,0
2024-04-23T19:38:43.376Z,0
2024-04-23T19:44:02.415Z,0
2024-04-23T19:49:21.428Z,0
2024-04-23T19:54:40.307Z,0
2024-04-23T19:59:59.659Z,0
2024-04-23T20:05:18.615Z,0
2024-04-23T20:10:38.101Z,0
2024-04-23T20:15:57.809Z,0
2024-04-23T20:21:16.633Z,0
2024-04-23T20:26:35.959Z,0
2024-04-23T20:31:55.515Z,0
2024-04-23T20:37:15.549Z,0
2024-04-23T20:43:49.718Z,0
2024-04-23T20:47:54.871Z,0
2024-04-23T20:53:13.295Z,0
2024-04-23T21:03:51.105Z,0
2024-04-23T21:09:11.544Z,0
2024-04-23T21:14:30.884Z,0
2024-04-23T21:19:49.786Z,0
2024-04-23T21:25:08.905Z,0
2024-04-23T21:30:29.253Z,0
2024-04-23T21:35:47.975Z,0
2024-04-23T21:46:26.093Z,0
2024-04-23T21:52:02.030Z,0
2024-04-23T21:57:04.752Z,0
2024-04-23T22:02:23.579Z,0
2024-04-23T22:07:43.855Z,0
2024-04-23T22:13:02.106Z,0
2024-04-23T22:18:21.118Z,0
2024-04-23T22:28:59.829Z,0
2024-04-23T22:34:19.361Z,0
2024-04-23T22:39:38.102Z,0
2024-04-23T22:44:57.752Z,0
2024-04-23T22:50:17.597Z,0
2024-04-23T22:55:37.832Z,0
2024-04-23T23:00:56.751Z,0
2024-04-23T23:06:16.078Z,0
2024-04-23T23:11:36.133Z,0
2024-04-23T23:16:54.578Z,0
2024-04-23T23:22:13.549Z,0
2024-04-23T23:27:33.727Z,0
2024-04-23T23:32:52.033Z,0
2024-04-23T23:38:11.014Z,0
2024-04-23T23:43:30.015Z,0
2024-04-23T23:48:49.327Z,0
2024-04-23T23:54:09.122Z,0
2024-04-23T23:59:27.432Z,0
